Time;durP1;ratioP1;P1;durP2;ratioP2;P2;SDS_P1;SDS_P2;PMS_P1;PMS_P2;Temp;Humidity;BMP_temperature;BMP_pressure;BME280_temperature;BME280_humidity;BME280_pressure;Samples;Min_cycle;Max_cycle;Signal;HPM_P1;HPM_P2
2022/03/11 00:01:43;;;;;;;21.88;7.75;;;;;;;;;;5034501;27;105801;-66
2022/03/11 00:04:29;;;;;;;14.25;6.93;;;;;;;;;;5018918;27;106691;-67
2022/03/11 00:06:56;;;;;;;18.90;7.53;;;;;;;;;;5030996;27;107481;-66
2022/03/11 00:09:22;;;;;;;15.52;8.13;;;;;;;;;;5030870;27;107544;-66
2022/03/11 00:11:48;;;;;;;17.20;7.60;;;;;;;;;;5017514;27;106466;-66
2022/03/11 00:14:15;;;;;;;15.82;7.40;;;;;;;;;;5019152;27;107276;-64
2022/03/11 00:16:42;;;;;;;14.13;7.50;;;;;;;;;;5030809;27;106998;-65
2022/03/11 00:19:08;;;;;;;14.15;7.75;;;;;;;;;;5019189;27;109163;-65
2022/03/11 00:21:35;;;;;;;18.55;7.60;;;;;;;;;;5033046;27;107677;-65
2022/03/11 00:24:01;;;;;;;15.63;7.60;;;;;;;;;;5033286;27;106802;-64
2022/03/11 00:26:28;;;;;;;16.48;8.02;;;;;;;;;;5007478;27;109223;-67
2022/03/11 00:28:54;;;;;;;15.63;7.68;;;;;;;;;;5034343;27;106388;-65
2022/03/11 00:31:21;;;;;;;14.43;7.85;;;;;;;;;;5032447;27;106067;-64
2022/03/11 00:33:47;;;;;;;14.38;7.03;;;;;;;;;;5033404;27;107582;-66
2022/03/11 00:36:13;;;;;;;15.90;8.07;;;;;;;;;;5034341;27;106183;-65
2022/03/11 00:38:40;;;;;;;15.63;7.57;;;;;;;;;;5014968;27;108330;-65
2022/03/11 00:41:07;;;;;;;16.13;7.18;;;;;;;;;;5032387;27;107746;-66
2022/03/11 00:43:34;;;;;;;17.10;7.95;;;;;;;;;;5037848;27;106935;-65
2022/03/11 00:46:00;;;;;;;16.02;7.90;;;;;;;;;;5033704;27;107482;-65
2022/03/11 00:48:27;;;;;;;16.73;7.93;;;;;;;;;;5033436;27;106056;-65
2022/03/11 00:50:53;;;;;;;17.77;8.02;;;;;;;;;;5033994;27;106331;-65
2022/03/11 00:53:20;;;;;;;18.45;8.43;;;;;;;;;;5031531;27;107466;-65
2022/03/11 00:55:46;;;;;;;17.65;8.00;;;;;;;;;;5025072;27;105996;-65
2022/03/11 00:58:12;;;;;;;20.45;8.73;;;;;;;;;;5027856;27;106848;-66
2022/03/11 01:00:39;;;;;;;18.25;8.63;;;;;;;;;;5032100;27;107560;-65
2022/03/11 01:03:06;;;;;;;22.98;8.93;;;;;;;;;;5020650;27;106235;-66
2022/03/11 01:05:33;;;;;;;17.27;8.75;;;;;;;;;;5035992;27;109005;-65
2022/03/11 01:08:02;;;;;;;16.43;8.27;;;;;;;;;;5041971;27;106333;-65
2022/03/11 01:10:29;;;;;;;19.58;8.95;;;;;;;;;;5031577;27;107179;-65
2022/03/11 01:12:55;;;;;;;19.45;8.07;;;;;;;;;;5033134;27;107816;-65
2022/03/11 01:15:22;;;;;;;16.27;8.18;;;;;;;;;;5032599;27;107688;-65
2022/03/11 01:17:48;;;;;;;22.08;8.57;;;;;;;;;;5033792;27;107016;-66
2022/03/11 01:20:14;;;;;;;17.33;8.73;;;;;;;;;;5032311;27;107354;-65
2022/03/11 01:22:41;;;;;;;16.10;8.40;;;;;;;;;;5033397;27;106139;-65
2022/03/11 01:25:08;;;;;;;16.20;8.65;;;;;;;;;;5031909;27;107514;-65
2022/03/11 01:27:36;;;;;;;19.63;8.88;;;;;;;;;;5035981;27;109058;-65
2022/03/11 01:30:07;;;;;;;17.17;8.93;;;;;;;;;;5032643;27;106778;-65
2022/03/11 01:32:33;;;;;;;21.42;9.02;;;;;;;;;;5033022;27;109343;-65
2022/03/11 01:35:00;;;;;;;17.35;8.50;;;;;;;;;;5003732;27;107129;-65
2022/03/11 01:37:26;;;;;;;18.42;9.45;;;;;;;;;;5031846;27;105807;-64
2022/03/11 01:39:52;;;;;;;17.83;8.88;;;;;;;;;;5031407;27;107177;-67
2022/03/11 01:42:19;;;;;;;18.60;8.98;;;;;;;;;;5032883;27;106805;-66
2022/03/11 01:44:45;;;;;;;17.48;8.93;;;;;;;;;;5033425;27;106906;-66
2022/03/11 01:47:11;;;;;;;18.33;8.80;;;;;;;;;;5019579;27;108395;-67
2022/03/11 01:49:38;;;;;;;18.00;8.98;;;;;;;;;;5035264;27;106212;-66
2022/03/11 01:52:04;;;;;;;22.27;10.15;;;;;;;;;;5031803;27;107345;-67
2022/03/11 01:54:31;;;;;;;16.90;8.52;;;;;;;;;;5018153;27;106731;-66
2022/03/11 01:56:57;;;;;;;18.92;8.65;;;;;;;;;;5031369;27;107849;-66
2022/03/11 01:59:24;;;;;;;19.77;9.00;;;;;;;;;;5031941;27;107419;-66
2022/03/11 02:01:50;;;;;;;21.08;9.30;;;;;;;;;;5031701;27;106949;-67
2022/03/11 02:04:17;;;;;;;17.25;8.68;;;;;;;;;;5032785;27;106290;-64
2022/03/11 02:06:44;;;;;;;18.45;9.95;;;;;;;;;;5031319;27;107486;-66
2022/03/11 02:09:10;;;;;;;22.02;9.77;;;;;;;;;;5025148;27;106272;-66
2022/03/11 02:11:36;;;;;;;19.02;9.70;;;;;;;;;;5010228;27;107533;-66
2022/03/11 02:14:03;;;;;;;21.25;9.25;;;;;;;;;;5025669;27;106105;-66
2022/03/11 02:16:30;;;;;;;18.10;9.20;;;;;;;;;;5031987;27;106119;-63
2022/03/11 02:18:57;;;;;;;21.95;8.77;;;;;;;;;;5031331;27;108016;-66
2022/03/11 02:21:25;;;;;;;20.23;9.75;;;;;;;;;;5031890;27;107208;-66
2022/03/11 02:23:53;;;;;;;19.58;9.05;;;;;;;;;;5032352;27;106696;-66
2022/03/11 02:26:20;;;;;;;22.05;9.75;;;;;;;;;;5025430;27;106507;-66
2022/03/11 02:28:47;;;;;;;17.50;9.48;;;;;;;;;;5029329;27;106067;-65
2022/03/11 02:31:13;;;;;;;19.58;9.23;;;;;;;;;;5021253;27;107554;-66
2022/03/11 02:33:40;;;;;;;19.65;9.52;;;;;;;;;;5013512;27;106994;-65
2022/03/11 02:36:07;;;;;;;20.95;9.60;;;;;;;;;;5031825;27;107098;-66
2022/03/11 02:38:33;;;;;;;19.30;9.25;;;;;;;;;;5029576;27;106390;-66
2022/03/11 02:40:59;;;;;;;19.77;9.35;;;;;;;;;;5010749;28;106140;-65
2022/03/11 02:43:26;;;;;;;18.63;9.07;;;;;;;;;;5024779;27;106518;-65
2022/03/11 02:45:52;;;;;;;17.45;9.18;;;;;;;;;;5031568;27;107288;-66
2022/03/11 02:48:19;;;;;;;22.05;10.05;;;;;;;;;;5032146;27;106397;-66
2022/03/11 02:50:45;;;;;;;29.48;9.95;;;;;;;;;;5014991;27;106947;-66
2022/03/11 02:53:12;;;;;;;19.40;9.27;;;;;;;;;;5022973;27;107833;-66
2022/03/11 02:55:38;;;;;;;16.88;9.43;;;;;;;;;;5028604;27;107853;-66
2022/03/11 02:58:05;;;;;;;19.15;9.25;;;;;;;;;;5042623;27;107322;-66
2022/03/11 03:00:32;;;;;;;19.48;9.05;;;;;;;;;;5031400;27;105702;-66
2022/03/11 03:02:58;;;;;;;19.00;9.52;;;;;;;;;;5014348;27;106952;-66
2022/03/11 03:05:24;;;;;;;18.50;9.50;;;;;;;;;;5027155;27;108129;-66
2022/03/11 03:07:51;;;;;;;18.70;9.07;;;;;;;;;;5031193;27;107515;-66
2022/03/11 03:10:18;;;;;;;19.25;9.63;;;;;;;;;;5021357;27;106704;-64
2022/03/11 03:12:44;;;;;;;20.45;9.25;;;;;;;;;;5031357;27;108553;-64
2022/03/11 03:15:10;;;;;;;20.67;9.07;;;;;;;;;;5033743;27;106764;-66
2022/03/11 03:17:37;;;;;;;17.45;8.88;;;;;;;;;;5011408;27;106990;-66
2022/03/11 03:20:04;;;;;;;20.48;9.02;;;;;;;;;;5030800;27;105920;-65
2022/03/11 03:22:31;;;;;;;17.80;9.07;;;;;;;;;;5021300;27;105745;-66
2022/03/11 03:24:57;;;;;;;17.33;9.18;;;;;;;;;;5024616;27;108025;-66
2022/03/11 03:27:23;;;;;;;20.38;8.90;;;;;;;;;;5031225;27;106878;-66
2022/03/11 03:29:50;;;;;;;18.75;9.07;;;;;;;;;;5030301;27;107962;-66
2022/03/11 03:32:16;;;;;;;19.13;9.13;;;;;;;;;;5028033;27;106356;-66
2022/03/11 03:34:42;;;;;;;21.23;9.43;;;;;;;;;;5017782;27;106112;-65
2022/03/11 03:37:10;;;;;;;27.80;9.13;;;;;;;;;;5034055;27;106209;-66
2022/03/11 03:39:37;;;;;;;20.70;9.25;;;;;;;;;;5030770;27;107991;-65
2022/03/11 03:42:04;;;;;;;20.05;9.57;;;;;;;;;;5016429;27;107199;-66
2022/03/11 03:44:30;;;;;;;16.15;8.77;;;;;;;;;;5015929;27;108541;-63
2022/03/11 03:46:57;;;;;;;19.48;9.35;;;;;;;;;;5031519;27;106240;-64
2022/03/11 03:49:25;;;;;;;18.02;9.00;;;;;;;;;;5030644;27;106645;-64
2022/03/11 03:51:52;;;;;;;22.00;9.15;;;;;;;;;;5032370;27;106362;-66
2022/03/11 03:54:18;;;;;;;19.38;9.23;;;;;;;;;;5049788;27;106295;-66
2022/03/11 03:56:45;;;;;;;19.15;8.73;;;;;;;;;;5041530;27;106730;-64
2022/03/11 03:59:12;;;;;;;16.60;8.65;;;;;;;;;;5026389;27;106440;-66
2022/03/11 04:01:40;;;;;;;18.70;9.20;;;;;;;;;;5034388;27;107162;-66
2022/03/11 04:04:07;;;;;;;17.67;8.90;;;;;;;;;;5033714;27;106891;-65
2022/03/11 04:06:34;;;;;;;19.52;9.38;;;;;;;;;;5034688;27;107012;-64
2022/03/11 04:09:01;;;;;;;16.90;8.52;;;;;;;;;;5033582;27;106832;-65
2022/03/11 04:11:28;;;;;;;22.88;8.95;;;;;;;;;;5013798;28;107561;-64
2022/03/11 04:13:54;;;;;;;18.45;9.13;;;;;;;;;;5021991;27;105959;-64
2022/03/11 04:16:23;;;;;;;20.23;8.48;;;;;;;;;;5034247;27;107073;-64
2022/03/11 04:18:50;;;;;;;16.45;8.52;;;;;;;;;;5036699;27;106451;-65
2022/03/11 04:21:17;;;;;;;19.35;9.10;;;;;;;;;;5032537;27;106868;-64
2022/03/11 04:23:44;;;;;;;20.23;9.68;;;;;;;;;;5034364;27;106848;-64
2022/03/11 04:26:11;;;;;;;17.80;8.82;;;;;;;;;;5014769;27;106534;-64
2022/03/11 04:28:37;;;;;;;21.25;10.18;;;;;;;;;;5024060;27;106620;-64
2022/03/11 04:31:04;;;;;;;20.90;8.82;;;;;;;;;;5013371;27;107645;-64
2022/03/11 04:33:31;;;;;;;24.17;9.57;;;;;;;;;;5023414;27;106449;-64
2022/03/11 04:35:58;;;;;;;20.17;8.70;;;;;;;;;;5035186;27;105876;-64
2022/03/11 04:38:24;;;;;;;20.50;9.02;;;;;;;;;;5032106;27;107447;-64
2022/03/11 04:40:50;;;;;;;19.02;9.32;;;;;;;;;;5035164;27;106843;-65
2022/03/11 04:43:17;;;;;;;27.40;9.65;;;;;;;;;;5026978;27;107466;-64
2022/03/11 04:45:44;;;;;;;18.92;9.88;;;;;;;;;;5032886;27;106333;-64
2022/03/11 04:48:10;;;;;;;18.70;9.57;;;;;;;;;;5027190;27;108799;-65
2022/03/11 04:50:37;;;;;;;20.23;9.70;;;;;;;;;;5029746;27;107537;-64
2022/03/11 04:53:04;;;;;;;19.70;9.48;;;;;;;;;;5022113;27;106616;-64
2022/03/11 04:55:30;;;;;;;20.48;9.20;;;;;;;;;;5033056;27;105998;-64
2022/03/11 04:57:56;;;;;;;20.52;9.32;;;;;;;;;;5020686;27;107187;-66
2022/03/11 05:00:23;;;;;;;20.42;10.10;;;;;;;;;;5033213;27;105785;-64
2022/03/11 05:02:50;;;;;;;19.00;9.45;;;;;;;;;;5036912;27;106402;-64
2022/03/11 05:05:17;;;;;;;22.98;8.93;;;;;;;;;;5031158;27;106376;-64
2022/03/11 05:07:43;;;;;;;17.02;8.52;;;;;;;;;;5033404;27;107168;-64
2022/03/11 05:10:10;;;;;;;21.83;9.65;;;;;;;;;;5031287;27;107302;-65
2022/03/11 05:12:37;;;;;;;19.80;9.30;;;;;;;;;;5019233;27;106188;-64
2022/03/11 05:15:04;;;;;;;20.02;9.45;;;;;;;;;;5033814;27;106758;-64
2022/03/11 05:17:31;;;;;;;21.08;8.93;;;;;;;;;;5032014;27;107583;-64
2022/03/11 05:19:58;;;;;;;20.02;9.38;;;;;;;;;;5024216;27;106080;-64
2022/03/11 05:22:24;;;;;;;21.58;9.18;;;;;;;;;;5033526;27;106105;-64
2022/03/11 05:24:51;;;;;;;20.02;9.35;;;;;;;;;;5036518;27;107916;-65
2022/03/11 05:27:17;;;;;;;21.08;9.80;;;;;;;;;;5033812;27;106299;-64
2022/03/11 05:29:44;;;;;;;19.95;9.43;;;;;;;;;;5032344;27;106733;-64
2022/03/11 05:32:12;;;;;;;17.20;8.35;;;;;;;;;;5043491;27;106053;-65
2022/03/11 05:34:39;;;;;;;22.08;9.20;;;;;;;;;;5033681;27;107027;-64
2022/03/11 05:37:06;;;;;;;23.27;9.18;;;;;;;;;;5032489;27;108018;-64
2022/03/11 05:39:33;;;;;;;16.42;8.63;;;;;;;;;;5031770;27;107474;-64
2022/03/11 05:41:59;;;;;;;16.70;9.07;;;;;;;;;;5033069;27;106665;-64
2022/03/11 05:44:26;;;;;;;20.20;9.02;;;;;;;;;;5031205;27;106988;-64
2022/03/11 05:46:53;;;;;;;19.20;9.20;;;;;;;;;;5037079;27;105867;-64
2022/03/11 05:49:19;;;;;;;18.38;9.68;;;;;;;;;;5029869;27;106239;-64
2022/03/11 05:51:46;;;;;;;19.48;8.80;;;;;;;;;;5033679;27;106340;-64
2022/03/11 05:54:12;;;;;;;18.63;9.20;;;;;;;;;;5014396;27;106809;-65
2022/03/11 05:56:38;;;;;;;18.80;8.77;;;;;;;;;;5008997;28;109251;-64
2022/03/11 05:59:05;;;;;;;19.77;8.65;;;;;;;;;;5020705;27;105910;-65
2022/03/11 06:01:32;;;;;;;19.13;8.48;;;;;;;;;;5032400;27;106722;-64
2022/03/11 06:04:01;;;;;;;20.58;9.13;;;;;;;;;;5023508;27;108949;-64
2022/03/11 06:06:30;;;;;;;15.77;8.50;;;;;;;;;;5025836;27;106272;-64
2022/03/11 06:08:56;;;;;;;18.13;8.80;;;;;;;;;;5026598;27;106024;-64
2022/03/11 06:11:23;;;;;;;20.40;8.82;;;;;;;;;;5030627;27;106109;-64
2022/03/11 06:13:50;;;;;;;21.27;8.45;;;;;;;;;;5032924;27;106740;-64
2022/03/11 06:16:16;;;;;;;20.00;8.30;;;;;;;;;;5030099;27;107810;-64
2022/03/11 06:18:43;;;;;;;20.50;8.98;;;;;;;;;;5032531;27;106103;-64
2022/03/11 06:21:09;;;;;;;20.73;9.13;;;;;;;;;;5022532;27;106555;-65
2022/03/11 06:23:36;;;;;;;20.00;8.70;;;;;;;;;;5030838;27;106377;-64
2022/03/11 06:26:03;;;;;;;21.27;8.93;;;;;;;;;;5031071;27;106310;-64
2022/03/11 06:28:30;;;;;;;18.33;8.95;;;;;;;;;;5014030;27;107376;-64
2022/03/11 06:30:57;;;;;;;21.10;9.40;;;;;;;;;;5030091;27;106129;-64
2022/03/11 06:33:23;;;;;;;16.60;8.93;;;;;;;;;;5031923;27;109334;-65
2022/03/11 06:35:50;;;;;;;17.48;8.93;;;;;;;;;;5031636;27;106640;-64
2022/03/11 06:38:17;;;;;;;16.98;8.43;;;;;;;;;;5013497;27;106532;-64
2022/03/11 06:40:49;;;;;;;21.52;9.20;;;;;;;;;;5027421;27;107176;-64
2022/03/11 06:43:16;;;;;;;18.10;8.43;;;;;;;;;;5031613;27;107299;-64
2022/03/11 06:45:43;;;;;;;23.83;9.05;;;;;;;;;;5024215;27;107632;-63
2022/03/11 06:48:13;;;;;;;22.20;8.88;;;;;;;;;;5022729;27;106721;-64
2022/03/11 06:50:40;;;;;;;16.65;8.55;;;;;;;;;;5028366;27;108018;-64
2022/03/11 06:53:06;;;;;;;17.27;8.57;;;;;;;;;;5030945;27;108466;-64
2022/03/11 06:55:33;;;;;;;17.50;8.45;;;;;;;;;;5029272;27;106357;-64
2022/03/11 06:58:00;;;;;;;18.98;8.93;;;;;;;;;;5023743;27;105904;-64
2022/03/11 07:00:26;;;;;;;22.15;9.20;;;;;;;;;;5031642;27;106773;-64
2022/03/11 07:02:53;;;;;;;22.35;8.70;;;;;;;;;;5031881;27;107566;-64
2022/03/11 07:05:20;;;;;;;19.70;8.65;;;;;;;;;;5030699;27;106912;-65
2022/03/11 07:07:46;;;;;;;19.20;9.73;;;;;;;;;;5013250;27;107261;-64
2022/03/11 07:10:16;;;;;;;20.48;8.85;;;;;;;;;;5029249;27;107738;-64
2022/03/11 07:12:43;;;;;;;19.83;8.35;;;;;;;;;;5035374;27;107014;-64
2022/03/11 07:15:09;;;;;;;16.13;8.02;;;;;;;;;;5020677;27;107613;-65
2022/03/11 07:17:36;;;;;;;21.60;8.88;;;;;;;;;;5030739;27;107324;-64
2022/03/11 07:20:04;;;;;;;18.45;9.10;;;;;;;;;;5030882;27;106951;-64
2022/03/11 07:22:32;;;;;;;21.17;8.65;;;;;;;;;;5029897;27;108323;-65
2022/03/11 07:24:58;;;;;;;19.42;8.50;;;;;;;;;;5030570;27;106028;-66
2022/03/11 07:27:25;;;;;;;15.52;8.40;;;;;;;;;;5023226;27;105889;-64
2022/03/11 07:29:52;;;;;;;15.38;8.18;;;;;;;;;;5029142;27;107483;-64
2022/03/11 07:32:18;;;;;;;18.92;8.90;;;;;;;;;;5024649;27;107348;-67
2022/03/11 07:34:44;;;;;;;20.20;9.52;;;;;;;;;;5002675;27;105831;-64
2022/03/11 07:37:12;;;;;;;20.80;8.45;;;;;;;;;;5032771;27;106590;-65
2022/03/11 07:39:41;;;;;;;20.45;9.02;;;;;;;;;;5034490;27;106494;-65
2022/03/11 07:42:08;;;;;;;;;;;;;;;;;;5030909;27;107583;-66
2022/03/11 07:44:34;;;;;;;17.25;8.63;;;;;;;;;;5013064;27;120204;-68
2022/03/11 07:47:00;;;;;;;16.80;8.65;;;;;;;;;;5033871;27;106703;-66
2022/03/11 07:49:30;;;;;;;19.15;9.40;;;;;;;;;;5023465;27;107348;-71
2022/03/11 07:51:56;;;;;;;19.23;9.10;;;;;;;;;;5032438;27;106617;-66
2022/03/11 07:54:23;;;;;;;19.40;8.75;;;;;;;;;;5033038;27;106124;-66
2022/03/11 07:56:49;;;;;;;18.83;9.43;;;;;;;;;;5036557;27;109472;-66
2022/03/11 07:59:16;;;;;;;18.15;9.13;;;;;;;;;;5033387;27;107344;-66
2022/03/11 08:01:42;;;;;;;24.00;9.98;;;;;;;;;;5027934;27;108311;-66
2022/03/11 08:04:13;;;;;;;17.67;9.82;;;;;;;;;;5035520;27;106714;-68
2022/03/11 08:06:40;;;;;;;24.55;9.73;;;;;;;;;;5035337;27;105781;-67
2022/03/11 08:09:06;;;;;;;21.83;9.77;;;;;;;;;;5032070;27;107303;-69
2022/03/11 08:11:32;;;;;;;17.65;9.63;;;;;;;;;;5034796;27;105957;-66
2022/03/11 08:13:59;;;;;;;19.85;9.65;;;;;;;;;;5031391;27;107103;-68
2022/03/11 08:16:25;;;;;;;18.48;9.38;;;;;;;;;;5024256;27;107513;-67
2022/03/11 08:18:52;;;;;;;19.00;9.70;;;;;;;;;;5034858;27;105703;-68
2022/03/11 08:21:18;;;;;;;20.30;9.98;;;;;;;;;;5027836;27;107603;-65
2022/03/11 08:23:45;;;;;;;19.77;9.50;;;;;;;;;;5030730;27;107009;-68
2022/03/11 08:26:11;;;;;;;18.67;9.70;;;;;;;;;;5031435;27;107078;-66
2022/03/11 08:28:44;;;;;;;18.67;10.00;;;;;;;;;;5028276;27;107599;-66
2022/03/11 08:31:31;;;;;;;20.60;10.10;;;;;;;;;;5031524;27;106110;-70
2022/03/11 08:33:57;;;;;;;23.90;10.45;;;;;;;;;;5014008;27;108274;-68
2022/03/11 08:36:24;;;;;;;20.35;10.25;;;;;;;;;;5014126;27;107851;-67
2022/03/11 08:38:53;;;;;;;21.95;10.40;;;;;;;;;;5036768;27;107475;-69
2022/03/11 08:41:22;;;;;;;17.45;9.38;;;;;;;;;;5030336;27;107313;-68
2022/03/11 08:43:49;;;;;;;19.02;9.98;;;;;;;;;;5031534;27;106601;-69
2022/03/11 08:46:15;;;;;;;22.48;10.95;;;;;;;;;;5033177;27;106892;-67
2022/03/11 08:48:43;;;;;;;19.88;10.18;;;;;;;;;;5033060;27;107481;-67
2022/03/11 08:51:10;;;;;;;28.80;9.55;;;;;;;;;;5028356;27;106748;-67
2022/03/11 08:53:36;;;;;;;21.45;10.23;;;;;;;;;;5023596;27;106359;-67
2022/03/11 08:56:03;;;;;;;21.17;10.30;;;;;;;;;;5020994;27;106967;-68
2022/03/11 08:58:29;;;;;;;22.27;10.38;;;;;;;;;;5033249;27;106652;-68
2022/03/11 09:00:56;;;;;;;18.83;9.60;;;;;;;;;;5033515;27;106348;-67
2022/03/11 09:03:23;;;;;;;21.10;11.13;;;;;;;;;;5030907;27;108103;-67
2022/03/11 09:05:50;;;;;;;19.48;10.18;;;;;;;;;;5029439;27;107855;-68
2022/03/11 09:08:17;;;;;;;19.42;9.70;;;;;;;;;;5023597;27;107473;-67
2022/03/11 09:10:43;;;;;;;21.75;10.52;;;;;;;;;;5038736;27;106056;-66
2022/03/11 09:13:10;;;;;;;23.13;10.55;;;;;;;;;;5032993;27;108051;-68
2022/03/11 09:15:36;;;;;;;22.77;11.07;;;;;;;;;;5040425;27;106468;-67
2022/03/11 09:18:08;;;;;;;25.15;11.07;;;;;;;;;;5031739;27;107453;-65
2022/03/11 09:20:35;;;;;;;21.27;9.82;;;;;;;;;;5028373;27;106765;-66
2022/03/11 09:23:05;;;;;;;21.77;10.02;;;;;;;;;;5017162;27;107453;-68
2022/03/11 09:25:31;;;;;;;19.55;10.20;;;;;;;;;;5017258;27;106888;-67
2022/03/11 09:28:03;;;;;;;23.70;10.63;;;;;;;;;;5032962;27;107345;-67
2022/03/11 09:30:29;;;;;;;18.63;10.15;;;;;;;;;;5032324;27;106265;-66
2022/03/11 09:32:56;;;;;;;22.00;11.20;;;;;;;;;;5025501;27;107112;-66
2022/03/11 09:35:23;;;;;;;21.27;10.18;;;;;;;;;;5030349;27;106908;-67
2022/03/11 09:37:49;;;;;;;21.77;11.00;;;;;;;;;;5033193;27;105935;-66
2022/03/11 09:40:16;;;;;;;19.58;10.65;;;;;;;;;;5012285;27;106988;-66
2022/03/11 09:42:43;;;;;;;20.20;10.57;;;;;;;;;;5035250;27;108053;-66
2022/03/11 09:45:10;;;;;;;18.95;10.43;;;;;;;;;;5029703;27;108333;-66
2022/03/11 09:47:40;;;;;;;21.73;10.88;;;;;;;;;;5025124;27;107803;-66
2022/03/11 09:50:06;;;;;;;22.33;10.50;;;;;;;;;;5025482;27;105972;-66
2022/03/11 09:52:35;;;;;;;19.73;10.70;;;;;;;;;;5026624;27;107163;-66
2022/03/11 09:55:06;;;;;;;20.67;10.95;;;;;;;;;;5018857;27;108125;-66
2022/03/11 09:57:32;;;;;;;22.10;10.68;;;;;;;;;;5030442;27;108158;-67
2022/03/11 09:59:59;;;;;;;19.30;10.27;;;;;;;;;;5029881;27;107675;-67
2022/03/11 10:02:25;;;;;;;24.63;11.88;;;;;;;;;;5030404;27;106313;-67
2022/03/11 10:04:52;;;;;;;26.33;10.98;;;;;;;;;;5012334;27;106572;-68
2022/03/11 10:07:40;;;;;;;23.67;11.05;;;;;;;;;;5033388;27;106565;-68
2022/03/11 10:10:14;;;;;;;23.05;10.93;;;;;;;;;;5029802;27;106527;-67
2022/03/11 10:13:01;;;;;;;23.70;11.10;;;;;;;;;;5032054;27;106485;-67
2022/03/11 10:15:28;;;;;;;30.05;11.90;;;;;;;;;;5031696;27;106775;-68
2022/03/11 10:17:55;;;;;;;23.23;11.40;;;;;;;;;;5027427;27;106860;-69
2022/03/11 10:20:22;;;;;;;24.48;12.15;;;;;;;;;;5027268;27;106024;-66
2022/03/11 10:22:48;;;;;;;22.75;12.13;;;;;;;;;;5030268;27;107162;-69
2022/03/11 10:25:19;;;;;;;21.77;11.77;;;;;;;;;;5030573;27;107541;-67
2022/03/11 10:27:55;;;;;;;21.60;12.18;;;;;;;;;;5031672;27;107359;-67
2022/03/11 10:30:22;;;;;;;23.45;11.38;;;;;;;;;;5033644;27;105982;-65
2022/03/11 10:32:56;;;;;;;26.35;12.55;;;;;;;;;;5025768;27;106568;-66
2022/03/11 10:35:39;;;;;;;25.40;11.55;;;;;;;;;;5024518;27;107434;-65
2022/03/11 10:38:07;;;;;;;21.70;11.98;;;;;;;;;;5028016;27;106836;-66
2022/03/11 10:40:35;;;;;;;27.30;12.52;;;;;;;;;;5003868;27;109372;-65
2022/03/11 10:43:08;;;;;;;26.55;11.98;;;;;;;;;;5033748;27;107523;-66
2022/03/11 10:45:51;;;;;;;24.75;12.20;;;;;;;;;;5036456;27;106641;-64
2022/03/11 10:48:19;;;;;;;23.58;11.27;;;;;;;;;;5021957;27;107319;-67
2022/03/11 10:50:45;;;;;;;24.08;11.50;;;;;;;;;;5026974;27;107119;-67
2022/03/11 10:53:12;;;;;;;19.83;11.50;;;;;;;;;;5028812;27;106091;-67
2022/03/11 10:55:39;;;;;;;26.40;12.60;;;;;;;;;;5025561;27;107531;-68
2022/03/11 10:58:06;;;;;;;25.23;11.90;;;;;;;;;;5037006;27;107016;-67
2022/03/11 11:00:42;;;;;;;28.40;12.18;;;;;;;;;;5032982;27;106867;-67
2022/03/11 11:03:09;;;;;;;25.65;11.95;;;;;;;;;;5027542;27;108139;-68
2022/03/11 11:05:36;;;;;;;22.08;12.00;;;;;;;;;;5043337;27;106171;-67
2022/03/11 11:08:04;;;;;;;24.33;12.48;;;;;;;;;;5030983;27;106243;-66
2022/03/11 11:10:32;;;;;;;24.13;12.27;;;;;;;;;;5034473;27;107641;-68
2022/03/11 11:12:59;;;;;;;26.98;12.65;;;;;;;;;;5033280;27;106159;-64
2022/03/11 11:15:25;;;;;;;25.23;12.52;;;;;;;;;;5004135;27;107584;-66
2022/03/11 11:17:52;;;;;;;23.33;12.18;;;;;;;;;;5018877;27;107110;-67
2022/03/11 11:20:23;;;;;;;23.50;12.23;;;;;;;;;;5028791;27;106259;-66
2022/03/11 11:22:50;;;;;;;19.58;12.18;;;;;;;;;;5012192;27;108327;-66
2022/03/11 11:25:19;;;;;;;28.95;11.85;;;;;;;;;;5027324;27;107306;-65
2022/03/11 11:27:46;;;;;;;20.63;11.88;;;;;;;;;;5030300;27;106849;-65
2022/03/11 11:30:20;;;;;;;28.42;11.68;;;;;;;;;;5018041;27;107345;-66
2022/03/11 11:32:47;;;;;;;21.52;12.18;;;;;;;;;;5027198;27;106042;-64
2022/03/11 11:35:30;;;;;;;25.45;12.10;;;;;;;;;;5033926;27;107123;-65
2022/03/11 11:38:02;;;;;;;22.80;12.40;;;;;;;;;;5029296;27;108707;-67
2022/03/11 11:40:32;;;;;;;25.08;12.68;;;;;;;;;;5026583;27;107949;-65
2022/03/11 11:43:10;;;;;;;23.58;13.07;;;;;;;;;;5023063;27;107499;-65
2022/03/11 11:45:43;;;;;;;23.33;13.50;;;;;;;;;;5026261;27;106124;-65
2022/03/11 11:48:30;;;;;;;28.25;13.63;;;;;;;;;;5022476;27;108301;-66
2022/03/11 11:50:57;;;;;;;24.83;12.85;;;;;;;;;;5010355;27;107781;-66
2022/03/11 11:53:34;;;;;;;22.25;12.13;;;;;;;;;;5024328;27;107601;-67
2022/03/11 11:56:00;;;;;;;21.70;12.82;;;;;;;;;;5029999;27;106833;-67
2022/03/11 11:58:30;;;;;;;26.55;13.02;;;;;;;;;;5030112;27;107977;-67
2022/03/11 12:00:57;;;;;;;24.05;13.60;;;;;;;;;;5029277;27;106783;-67
2022/03/11 12:03:42;;;;;;;24.73;13.43;;;;;;;;;;5027116;27;107089;-67
2022/03/11 12:06:09;;;;;;;24.77;13.65;;;;;;;;;;5017467;27;106891;-68
2022/03/11 12:08:40;;;;;;;31.35;13.25;;;;;;;;;;5012270;27;109069;-66
2022/03/11 12:11:07;;;;;;;26.85;13.93;;;;;;;;;;5018469;27;107848;-67
2022/03/11 12:13:34;;;;;;;27.25;13.25;;;;;;;;;;5025579;27;106169;-68
2022/03/11 12:16:21;;;;;;;23.38;13.70;;;;;;;;;;4990464;28;106712;-67
2022/03/11 12:18:48;;;;;;;25.33;13.65;;;;;;;;;;4992975;28;108114;-65
2022/03/11 12:21:25;;;;;;;25.02;13.93;;;;;;;;;;5019222;27;107720;-65
2022/03/11 12:23:51;;;;;;;25.58;13.40;;;;;;;;;;5012151;28;106786;-67
2022/03/11 12:26:18;;;;;;;25.33;14.45;;;;;;;;;;5011740;27;106563;-67
2022/03/11 12:28:45;;;;;;;29.75;14.90;;;;;;;;;;5012156;28;107904;-65
2022/03/11 12:31:23;;;;;;;25.80;14.68;;;;;;;;;;5011283;28;107348;-66
2022/03/11 12:33:50;;;;;;;28.57;13.60;;;;;;;;;;5012737;27;106692;-65
2022/03/11 12:36:19;;;;;;;24.95;13.85;;;;;;;;;;4996061;27;108389;-66
2022/03/11 12:38:46;;;;;;;21.98;14.02;;;;;;;;;;4997722;28;108661;-65
2022/03/11 12:41:15;;;;;;;27.77;13.53;;;;;;;;;;5013910;28;108213;-65
2022/03/11 12:43:42;;;;;;;25.38;14.13;;;;;;;;;;5012197;28;107573;-66
2022/03/11 12:46:10;;;;;;;28.48;14.43;;;;;;;;;;5011276;28;107598;-66
2022/03/11 12:48:38;;;;;;;23.83;14.32;;;;;;;;;;5011661;27;108016;-66
2022/03/11 12:51:05;;;;;;;25.88;14.23;;;;;;;;;;5006521;28;108064;-69
2022/03/11 12:53:31;;;;;;;25.42;14.10;;;;;;;;;;5008419;27;108671;-65
2022/03/11 12:55:58;;;;;;;28.25;14.35;;;;;;;;;;5004035;27;108076;-66
2022/03/11 12:58:27;;;;;;;24.23;15.38;;;;;;;;;;4999259;27;108990;-66
2022/03/11 13:00:55;;;;;;;24.33;15.23;;;;;;;;;;5010344;27;106819;-66
2022/03/11 13:03:30;;;;;;;25.23;14.43;;;;;;;;;;5013060;27;108380;-66
2022/03/11 13:05:58;;;;;;;27.08;15.43;;;;;;;;;;5010615;27;107259;-66
2022/03/11 13:08:24;;;;;;;21.20;14.10;;;;;;;;;;5002209;27;107475;-66
2022/03/11 13:10:51;;;;;;;24.23;15.18;;;;;;;;;;5002184;28;106994;-65
2022/03/11 13:13:20;;;;;;;31.90;14.75;;;;;;;;;;5011044;27;106421;-66
2022/03/11 13:15:49;;;;;;;21.33;14.75;;;;;;;;;;5005218;27;108233;-66
2022/03/11 13:18:18;;;;;;;23.70;14.13;;;;;;;;;;5011930;27;108149;-67
2022/03/11 13:20:57;;;;;;;22.13;14.77;;;;;;;;;;5021083;27;107259;-65
2022/03/11 13:23:31;;;;;;;26.90;14.85;;;;;;;;;;5020643;27;108413;-67
2022/03/11 13:26:00;;;;;;;24.58;13.93;;;;;;;;;;5028711;27;108272;-66
2022/03/11 13:28:45;;;;;;;28.17;14.77;;;;;;;;;;5021090;27;107200;-66
2022/03/11 13:31:16;;;;;;;23.17;13.85;;;;;;;;;;5023831;27;108416;-66
2022/03/11 13:33:44;;;;;;;24.92;14.13;;;;;;;;;;5020548;27;109984;-65
2022/03/11 13:36:19;;;;;;;25.13;13.88;;;;;;;;;;5020892;27;108687;-66
2022/03/11 13:38:57;;;;;;;22.10;13.55;;;;;;;;;;5018248;27;108662;-66
2022/03/11 13:41:30;;;;;;;19.83;13.13;;;;;;;;;;5023105;27;108421;-67
2022/03/11 13:44:09;;;;;;;22.80;14.55;;;;;;;;;;5019700;27;109154;-66
2022/03/11 13:46:36;;;;;;;22.63;14.50;;;;;;;;;;5024517;27;107897;-66
2022/03/11 13:49:07;;;;;;;21.77;14.85;;;;;;;;;;5027863;27;108252;-66
2022/03/11 13:51:43;;;;;;;26.80;15.07;;;;;;;;;;5020197;27;108235;-66
2022/03/11 13:54:10;;;;;;;24.17;14.00;;;;;;;;;;5017752;27;107397;-66
2022/03/11 13:56:37;;;;;;;18.38;13.07;;;;;;;;;;5020301;27;108822;-66
2022/03/11 13:59:09;;;;;;;22.00;14.23;;;;;;;;;;5030269;27;108591;-66
2022/03/11 14:01:54;;;;;;;26.70;14.75;;;;;;;;;;5029501;27;108636;-67
2022/03/11 14:04:22;;;;;;;19.27;13.88;;;;;;;;;;5029548;27;107975;-66
2022/03/11 14:06:48;;;;;;;22.63;13.88;;;;;;;;;;5029522;27;108998;-66
2022/03/11 14:09:23;;;;;;;24.40;14.55;;;;;;;;;;5012373;27;107432;-67
2022/03/11 14:11:53;;;;;;;22.33;14.50;;;;;;;;;;5031050;27;108438;-66
2022/03/11 14:14:23;;;;;;;21.92;14.20;;;;;;;;;;5000157;27;108816;-66
2022/03/11 14:16:53;;;;;;;25.80;14.60;;;;;;;;;;5030663;27;107234;-66